createdAt,value
2022-11-14T00:02:26.460Z,11.33
2022-11-14T00:05:12.797Z,13.03
2022-11-14T00:07:59.220Z,12.80
2022-11-14T00:10:47.681Z,14.63
2022-11-14T00:13:33.999Z,13.03
2022-11-14T00:16:21.781Z,12.83
2022-11-14T00:19:08.549Z,14.40
2022-11-14T00:21:54.985Z,12.37
2022-11-14T00:24:41.415Z,13.87
2022-11-14T00:27:27.900Z,13.27
2022-11-14T00:30:14.709Z,14.17
2022-11-14T00:33:02.771Z,13.23
2022-11-14T00:35:54.056Z,10.93
2022-11-14T00:38:40.567Z,12.30
2022-11-14T00:41:27.317Z,12.63
2022-11-14T00:44:13.742Z,10.70
2022-11-14T00:47:00.302Z,10.23
2022-11-14T00:49:48.047Z,14.97
2022-11-14T00:52:34.329Z,10.60
2022-11-14T00:55:20.981Z,12.97
2022-11-14T00:58:07.213Z,13.77
2022-11-14T01:00:54.111Z,12.93
2022-11-14T01:03:40.818Z,11.87
2022-11-14T01:06:28.804Z,13.57
2022-11-14T01:09:15.082Z,13.10
2022-11-14T01:12:01.567Z,14.10
2022-11-14T01:14:48.366Z,12.43
2022-11-14T01:17:35.034Z,14.17
2022-11-14T01:20:21.653Z,13.63
2022-11-14T01:23:10.020Z,15.80
2022-11-14T01:26:02.007Z,14.90
2022-11-14T01:28:48.581Z,12.23
2022-11-14T01:31:34.928Z,13.00
2022-11-14T01:34:21.312Z,10.40
2022-11-14T01:37:07.631Z,12.00
2022-11-14T01:39:55.564Z,12.67
2022-11-14T01:42:42.442Z,12.67
2022-11-14T01:45:53.385Z,11.23
2022-11-14T01:48:43.766Z,11.47
2022-11-14T01:51:33.450Z,13.03
2022-11-14T01:54:23.786Z,12.47
2022-11-14T01:57:13.749Z,12.70
2022-11-14T02:00:05.271Z,12.93
2022-11-14T02:02:52.870Z,12.13
2022-11-14T02:05:39.473Z,11.00
2022-11-14T02:08:27.052Z,11.60
2022-11-14T02:11:13.825Z,12.20
2022-11-14T02:14:02.202Z,12.50
2022-11-14T02:17:14.302Z,13.30
2022-11-14T02:20:02.252Z,14.67
2022-11-14T02:22:52.843Z,12.00
2022-11-14T02:25:39.650Z,12.43
2022-11-14T02:28:26.797Z,12.83
2022-11-14T02:31:13.575Z,12.80
2022-11-14T02:34:00.475Z,13.60
2022-11-14T02:36:47.024Z,12.17
2022-11-14T02:39:35.031Z,11.97
2022-11-14T02:42:21.533Z,11.27
2022-11-14T02:45:09.304Z,11.33
2022-11-14T02:47:55.898Z,11.27
2022-11-14T02:50:42.782Z,13.00
2022-11-14T02:53:29.035Z,11.80
2022-11-14T02:56:17.057Z,12.37
2022-11-14T02:59:03.863Z,13.27
2022-11-14T03:01:50.180Z,12.50
2022-11-14T03:04:36.465Z,10.67
2022-11-14T03:07:23.105Z,12.20
2022-11-14T03:10:10.047Z,11.47
2022-11-14T03:12:58.382Z,13.80
2022-11-14T03:15:45.214Z,12.23
2022-11-14T03:18:31.910Z,16.13
2022-11-14T03:21:20.460Z,13.40
2022-11-14T03:24:07.912Z,13.50
2022-11-14T03:26:54.616Z,11.77
2022-11-14T03:29:42.535Z,13.47
2022-11-14T03:32:29.153Z,13.37
2022-11-14T03:35:15.815Z,11.03
2022-11-14T03:38:02.484Z,11.90
2022-11-14T03:40:48.813Z,12.27
2022-11-14T03:43:36.157Z,13.23
2022-11-14T03:46:24.120Z,11.70
2022-11-14T03:49:10.373Z,11.13
2022-11-14T03:51:56.739Z,14.43
2022-11-14T03:54:43.172Z,11.20
2022-11-14T03:57:29.412Z,11.53
2022-11-14T04:00:16.562Z,11.00
2022-11-14T04:03:05.167Z,12.40
2022-11-14T04:05:51.732Z,11.50
2022-11-14T04:08:40.239Z,12.10
2022-11-14T04:11:26.716Z,11.67
2022-11-14T04:14:13.265Z,14.43
2022-11-14T04:16:59.578Z,12.47
2022-11-14T04:19:47.222Z,11.03
2022-11-14T04:22:33.515Z,11.23
2022-11-14T04:25:19.828Z,10.80
2022-11-14T04:28:06.507Z,11.37
2022-11-14T04:30:54.106Z,12.43
2022-11-14T04:33:40.738Z,12.23
2022-11-14T04:36:28.474Z,11.67
2022-11-14T04:39:14.850Z,13.13
2022-11-14T04:42:01.241Z,10.93
2022-11-14T04:44:48.209Z,11.10
2022-11-14T04:47:34.785Z,12.90
2022-11-14T04:50:21.359Z,12.17
2022-11-14T04:53:09.174Z,10.27
2022-11-14T04:55:55.679Z,13.37
2022-11-14T04:58:42.055Z,12.77
2022-11-14T05:01:28.475Z,12.23
2022-11-14T05:04:15.510Z,13.63
2022-11-14T05:07:02.119Z,14.63
2022-11-14T05:09:50.079Z,13.43
2022-11-14T05:12:36.828Z,11.27
2022-11-14T05:15:23.825Z,13.03
2022-11-14T05:18:10.258Z,11.93
2022-11-14T05:20:59.352Z,12.80
2022-11-14T05:23:45.783Z,13.17
2022-11-14T05:26:33.791Z,12.43
2022-11-14T05:29:20.710Z,11.77
2022-11-14T05:32:08.596Z,12.00
2022-11-14T05:34:57.478Z,14.87
2022-11-14T05:37:43.741Z,13.77
2022-11-14T05:40:30.062Z,12.17
2022-11-14T05:43:17.641Z,14.27
2022-11-14T05:46:06.051Z,14.00
2022-11-14T05:48:52.298Z,13.80
2022-11-14T05:51:38.565Z,14.47
2022-11-14T05:54:24.821Z,14.60
2022-11-14T05:57:11.066Z,16.83
2022-11-14T05:59:59.754Z,11.83
2022-11-14T06:02:46.782Z,14.07
2022-11-14T06:05:35.314Z,13.13
2022-11-14T06:08:21.999Z,13.93
2022-11-14T06:11:10.488Z,13.40
2022-11-14T06:13:56.756Z,12.27
2022-11-14T06:16:44.475Z,12.53
2022-11-14T06:19:31.037Z,12.13
2022-11-14T06:22:17.281Z,13.37
2022-11-14T06:25:03.826Z,12.07
2022-11-14T06:27:50.338Z,13.47
2022-11-14T06:30:36.567Z,12.17
2022-11-14T06:33:24.683Z,13.20
2022-11-14T06:36:12.119Z,12.10
2022-11-14T06:38:58.755Z,10.73
2022-11-14T06:41:45.303Z,12.90
2022-11-14T06:44:32.035Z,12.73
2022-11-14T06:47:18.615Z,10.90
2022-11-14T06:50:07.573Z,12.17
2022-11-14T06:52:54.309Z,11.63
2022-11-14T06:55:40.655Z,12.23
2022-11-14T06:58:28.833Z,14.33
2022-11-14T07:01:17.469Z,12.10
2022-11-14T07:04:04.269Z,13.60
2022-11-14T07:06:51.982Z,12.43
2022-11-14T07:09:38.437Z,15.20
2022-11-14T07:12:24.870Z,11.13
2022-11-14T07:15:11.974Z,13.73
2022-11-14T07:17:59.517Z,14.87
2022-11-14T07:20:46.114Z,12.30
2022-11-14T07:23:34.725Z,14.33
2022-11-14T07:26:21.277Z,11.53
2022-11-14T07:29:07.751Z,13.37
2022-11-14T07:31:54.296Z,14.73
2022-11-14T07:34:40.712Z,13.07
2022-11-14T07:37:27.181Z,13.60
2022-11-14T07:40:15.219Z,15.03
2022-11-14T07:43:02.601Z,10.67
2022-11-14T07:45:49.468Z,11.00
2022-11-14T07:48:35.989Z,12.37
2022-11-14T07:51:22.380Z,14.17
2022-11-14T07:54:11.180Z,11.33
2022-11-14T07:56:59.014Z,13.33
2022-11-14T07:59:45.793Z,12.63
2022-11-14T08:02:32.284Z,12.53
2022-11-14T08:05:19.156Z,14.20
2022-11-14T08:08:06.261Z,10.87
2022-11-14T08:10:52.609Z,13.53
2022-11-14T08:13:40.611Z,13.53
2022-11-14T08:16:27.100Z,12.80
2022-11-14T08:19:13.386Z,12.23
2022-11-14T08:21:59.825Z,12.73
2022-11-14T08:24:46.513Z,12.80
2022-11-14T08:27:32.673Z,14.13
2022-11-14T08:30:20.473Z,15.33
2022-11-14T08:33:07.759Z,12.53
2022-11-14T08:35:53.983Z,16.80
2022-11-14T08:38:40.617Z,14.27
2022-11-14T08:41:27.302Z,13.93
2022-11-14T08:44:13.722Z,13.93
2022-11-14T08:47:02.171Z,13.37
2022-11-14T08:49:48.520Z,12.47
2022-11-14T08:52:34.958Z,12.30
2022-11-14T08:55:21.960Z,14.53
2022-11-14T08:58:08.669Z,13.27
2022-11-14T09:00:55.214Z,12.57
2022-11-14T09:03:43.084Z,12.40
2022-11-14T09:06:29.717Z,12.40
2022-11-14T09:09:16.034Z,13.40
2022-11-14T09:12:02.407Z,14.03
2022-11-14T09:14:49.251Z,12.33
2022-11-14T09:17:35.886Z,13.67
2022-11-14T09:20:28.409Z,13.43
2022-11-14T09:23:18.515Z,11.67
2022-11-14T09:26:06.195Z,14.00
2022-11-14T09:28:52.725Z,12.57
2022-11-14T09:31:39.006Z,12.90
2022-11-14T09:34:25.182Z,12.17
2022-11-14T09:37:13.348Z,13.30
2022-11-14T09:39:59.947Z,11.43
2022-11-14T09:43:02.390Z,11.77
2022-11-14T09:45:51.993Z,12.57
2022-11-14T09:48:38.708Z,11.73
2022-11-14T09:51:30.025Z,12.33
2022-11-14T09:54:23.437Z,11.87
2022-11-14T09:57:17.499Z,11.50
2022-11-14T10:00:13.005Z,11.20
2022-11-14T10:03:10.539Z,14.43
2022-11-14T10:06:11.310Z,11.50
2022-11-14T10:09:13.121Z,11.30
2022-11-14T10:12:09.291Z,13.67
2022-11-14T10:15:10.724Z,14.07
2022-11-14T10:18:08.421Z,11.60
2022-11-14T10:20:58.282Z,12.40
2022-11-14T10:23:55.129Z,13.93
2022-11-14T10:26:49.696Z,15.00
2022-11-14T10:29:53.005Z,13.67
2022-11-14T10:33:00.032Z,13.20
2022-11-14T10:35:53.912Z,13.33
2022-11-14T10:38:44.915Z,12.97
2022-11-14T10:41:55.484Z,13.70
2022-11-14T10:44:50.438Z,12.53
2022-11-14T10:47:41.578Z,13.17
2022-11-14T10:50:33.746Z,13.03
2022-11-14T10:53:27.822Z,13.30
2022-11-14T10:56:14.973Z,14.80
2022-11-14T10:59:01.310Z,12.43
2022-11-14T11:01:57.091Z,13.47
2022-11-14T11:04:45.218Z,13.83
2022-11-14T11:07:54.550Z,14.10
2022-11-14T11:11:03.390Z,14.80
2022-11-14T11:13:54.959Z,13.77
2022-11-14T11:16:41.533Z,13.87
2022-11-14T11:19:30.844Z,14.57
2022-11-14T11:22:30.357Z,13.60
2022-11-14T11:25:25.533Z,15.60
2022-11-14T11:28:14.880Z,13.20
2022-11-14T11:31:03.341Z,13.70
2022-11-14T11:33:50.357Z,17.20
2022-11-14T11:36:41.851Z,14.50
2022-11-14T11:39:30.733Z,16.07
2022-11-14T11:42:22.999Z,13.53
2022-11-14T11:45:17.450Z,14.87
2022-11-14T11:48:11.182Z,13.70
2022-11-14T11:50:58.373Z,13.83
2022-11-14T11:53:58.314Z,14.23
2022-11-14T11:56:48.617Z,13.20
2022-11-14T11:59:41.750Z,12.50
2022-11-14T12:02:29.364Z,12.83
2022-11-14T12:05:18.289Z,11.77
2022-11-14T12:08:09.517Z,13.27
2022-11-14T12:10:57.875Z,12.57
2022-11-14T12:14:08.872Z,12.77
2022-11-14T12:17:26.438Z,12.07
2022-11-14T12:20:36.374Z,11.03
2022-11-14T12:24:03.608Z,11.13
2022-11-14T12:27:03.888Z,12.63
2022-11-14T12:30:09.803Z,13.07
2022-11-14T12:33:00.969Z,13.13
2022-11-14T12:35:52.060Z,11.60
2022-11-14T12:38:43.991Z,12.37
2022-11-14T12:41:33.306Z,11.47
2022-11-14T12:44:34.858Z,10.97
2022-11-14T12:47:23.319Z,10.73
2022-11-14T12:50:35.012Z,11.57
2022-11-14T12:53:42.110Z,10.80
2022-11-14T12:56:54.250Z,11.23
2022-11-14T12:59:54.315Z,9.43
2022-11-14T13:03:19.464Z,9.43
2022-11-14T13:06:10.019Z,10.47
2022-11-14T13:09:13.946Z,10.13
2022-11-14T13:12:36.917Z,10.20
2022-11-14T13:15:49.261Z,11.47
2022-11-14T13:18:54.481Z,10.37
2022-11-14T13:22:22.045Z,10.13
2022-11-14T13:25:23.154Z,12.37
2022-11-14T13:28:48.011Z,14.53
2022-11-14T13:31:48.267Z,13.10
2022-11-14T13:34:41.223Z,13.47
2022-11-14T13:37:44.834Z,13.73
2022-11-14T13:40:37.774Z,13.40
2022-11-14T13:43:40.018Z,15.17
2022-11-14T13:46:42.408Z,16.17
2022-11-14T13:49:53.669Z,14.13
2022-11-14T13:52:43.065Z,17.30
2022-11-14T13:55:39.109Z,17.30
2022-11-14T13:58:48.574Z,18.00
2022-11-14T14:01:49.626Z,17.73
2022-11-14T14:04:50.955Z,13.67
2022-11-14T14:07:53.742Z,14.63
2022-11-14T14:10:43.899Z,18.13
2022-11-14T14:13:43.332Z,15.87
2022-11-14T14:16:37.467Z,16.63
2022-11-14T14:19:37.995Z,17.57
2022-11-14T14:22:33.344Z,16.87
2022-11-14T14:25:24.662Z,14.57
2022-11-14T14:28:18.989Z,14.07
2022-11-14T14:31:12.470Z,17.40
2022-11-14T14:33:59.138Z,15.30
2022-11-14T14:36:51.325Z,14.30
2022-11-14T14:39:38.969Z,14.27
2022-11-14T14:42:29.555Z,14.37
2022-11-14T14:45:22.042Z,15.13
2022-11-14T14:48:14.879Z,14.57
2022-11-14T14:51:02.966Z,14.60
2022-11-14T14:53:53.937Z,14.27
2022-11-14T14:56:54.178Z,14.43
2022-11-14T14:59:42.083Z,14.83
2022-11-14T15:02:29.703Z,14.43
2022-11-14T15:05:23.545Z,14.40
2022-11-14T15:08:14.999Z,14.27
2022-11-14T15:11:02.562Z,14.23
2022-11-14T15:13:53.786Z,15.70
2022-11-14T15:16:40.993Z,12.70
2022-11-14T15:19:35.697Z,13.40
2022-11-14T15:22:25.898Z,13.33
2022-11-14T15:25:21.162Z,14.77
2022-11-14T15:28:17.200Z,13.53
2022-11-14T15:31:06.291Z,14.40
2022-11-14T15:34:04.235Z,12.60
2022-11-14T15:37:20.711Z,13.03
2022-11-14T15:40:18.483Z,14.83
2022-11-14T15:43:36.794Z,12.33
2022-11-14T15:46:44.862Z,12.13
2022-11-14T15:49:31.387Z,10.93
2022-11-14T15:52:22.650Z,11.10
2022-11-14T15:55:15.495Z,12.90
2022-11-14T15:58:26.613Z,11.57
2022-11-14T16:01:17.029Z,10.27
2022-11-14T16:04:05.027Z,10.70
2022-11-14T16:06:51.706Z,11.77
2022-11-14T16:09:38.222Z,9.90
2022-11-14T16:12:24.763Z,9.87
2022-11-14T16:15:11.562Z,10.37
2022-11-14T16:17:58.413Z,11.17
2022-11-14T16:20:46.381Z,12.87
2022-11-14T16:23:33.071Z,15.47
2022-11-14T16:26:19.586Z,12.30
2022-11-14T16:29:06.022Z,10.57
2022-11-14T16:31:52.660Z,10.73
2022-11-14T16:34:39.552Z,12.67
2022-11-14T16:37:27.743Z,11.80
2022-11-14T16:40:15.975Z,12.03
2022-11-14T16:43:03.266Z,12.33
2022-11-14T16:45:49.698Z,11.97
2022-11-14T16:48:36.656Z,11.23
2022-11-14T16:51:46.614Z,13.37
2022-11-14T16:54:30.838Z,13.57
2022-11-14T16:57:17.570Z,13.63
2022-11-14T17:00:04.982Z,12.33
2022-11-14T17:02:51.492Z,11.60
2022-11-14T17:05:44.094Z,12.60
2022-11-14T17:08:30.834Z,12.00
2022-11-14T17:11:18.719Z,12.63
2022-11-14T17:14:05.102Z,12.03
2022-11-14T17:16:51.620Z,13.87
2022-11-14T17:19:45.519Z,13.30
2022-11-14T17:22:31.908Z,14.60
2022-11-14T17:25:18.321Z,16.33
2022-11-14T17:28:06.160Z,14.93
2022-11-14T17:30:52.624Z,15.43
2022-11-14T17:33:39.158Z,14.53
2022-11-14T17:36:28.333Z,15.20
2022-11-14T17:39:15.188Z,18.83
2022-11-14T17:42:01.791Z,17.50
2022-11-14T17:44:49.633Z,16.07
2022-11-14T17:47:36.814Z,15.63
2022-11-14T17:50:23.654Z,17.70
2022-11-14T17:53:10.208Z,17.17
2022-11-14T17:55:57.682Z,14.23
2022-11-14T17:58:44.657Z,14.53
2022-11-14T18:01:32.561Z,15.83
2022-11-14T18:04:18.903Z,16.70
2022-11-14T18:07:05.486Z,16.57
2022-11-14T18:09:51.829Z,15.70
2022-11-14T18:12:38.195Z,16.47
2022-11-14T18:15:27.909Z,15.93
2022-11-14T18:18:16.322Z,16.90
2022-11-14T18:21:07.633Z,17.80
2022-11-14T18:23:55.278Z,18.67
2022-11-14T18:26:42.341Z,17.23
2022-11-14T18:29:30.665Z,15.63
2022-11-14T18:32:17.967Z,20.33
2022-11-14T18:35:07.059Z,16.83
2022-11-14T18:37:53.518Z,17.67
2022-11-14T18:40:44.359Z,16.63
2022-11-14T18:43:32.396Z,15.43
2022-11-14T18:46:21.598Z,16.43
2022-11-14T18:49:08.238Z,16.17
2022-11-14T18:51:56.353Z,17.77
2022-11-14T18:54:43.036Z,14.93
2022-11-14T18:57:29.286Z,18.60
2022-11-14T19:00:16.740Z,17.17
2022-11-14T19:03:06.287Z,17.07
2022-11-14T19:05:53.299Z,19.60
2022-11-14T19:08:41.827Z,16.60
2022-11-14T19:11:46.307Z,19.43
2022-11-14T19:14:33.073Z,18.33
2022-11-14T19:17:22.351Z,17.53
2022-11-14T19:20:14.105Z,16.80
2022-11-14T19:23:00.832Z,20.37
2022-11-14T19:25:48.590Z,15.97
2022-11-14T19:28:35.019Z,17.73
2022-11-14T19:31:22.896Z,19.50
2022-11-14T19:34:10.440Z,18.83
2022-11-14T19:37:01.153Z,20.13
2022-11-14T19:39:49.675Z,19.80
2022-11-14T19:42:37.383Z,18.63
2022-11-14T19:45:23.875Z,19.83
2022-11-14T19:48:11.122Z,19.30
2022-11-14T19:51:02.052Z,18.03
2022-11-14T19:53:48.827Z,19.30
2022-11-14T19:56:35.224Z,16.03
2022-11-14T19:59:24.606Z,17.57
2022-11-14T20:02:14.077Z,19.27
2022-11-14T20:05:00.839Z,18.87
2022-11-14T20:07:47.109Z,19.67
2022-11-14T20:10:47.248Z,18.87
2022-11-14T20:13:34.967Z,17.27
2022-11-14T20:16:23.986Z,17.17
2022-11-14T20:19:10.257Z,16.67
2022-11-14T20:21:56.645Z,17.00
2022-11-14T20:24:42.839Z,17.83
2022-11-14T20:27:29.300Z,19.70
2022-11-14T20:30:16.352Z,16.67
2022-11-14T20:33:04.206Z,16.90
2022-11-14T20:35:50.565Z,18.87
2022-11-14T20:38:37.515Z,17.03
2022-11-14T20:41:23.913Z,17.17
2022-11-14T20:44:10.598Z,19.17
2022-11-14T20:46:57.162Z,21.97
2022-11-14T20:49:46.780Z,17.27
2022-11-14T20:52:33.344Z,19.87
2022-11-14T20:55:19.677Z,18.90
2022-11-14T20:58:06.413Z,19.90
2022-11-14T21:00:53.495Z,18.47
2022-11-14T21:03:40.579Z,19.87
2022-11-14T21:06:28.598Z,19.87
2022-11-14T21:09:15.382Z,22.13
2022-11-14T21:12:01.781Z,20.40
2022-11-14T21:14:48.486Z,19.90
2022-11-14T21:17:35.006Z,20.47
2022-11-14T21:20:21.536Z,21.03
2022-11-14T21:23:09.206Z,18.93
2022-11-14T21:26:02.950Z,19.23
2022-11-14T21:28:51.624Z,19.13
2022-11-14T21:31:39.823Z,19.63
2022-11-14T21:34:26.071Z,28.47
2022-11-14T21:37:12.614Z,19.53
2022-11-14T21:40:00.217Z,19.73
2022-11-14T21:42:46.554Z,21.93
2022-11-14T21:45:32.929Z,19.63
2022-11-14T21:48:19.127Z,20.17
2022-11-14T21:51:06.858Z,20.83
2022-11-14T21:53:55.469Z,18.83
2022-11-14T21:56:43.205Z,18.93
2022-11-14T21:59:31.333Z,18.37
2022-11-14T22:02:35.576Z,18.50
2022-11-14T22:05:22.322Z,19.93
2022-11-14T22:08:08.794Z,20.37
2022-11-14T22:10:55.177Z,20.20
2022-11-14T22:13:43.181Z,20.10
2022-11-14T22:16:29.947Z,20.40
2022-11-14T22:19:16.184Z,22.40
2022-11-14T22:22:02.665Z,20.10
2022-11-14T22:24:49.087Z,20.63
2022-11-14T22:27:35.394Z,22.30
2022-11-14T22:30:23.190Z,23.47
2022-11-14T22:33:09.770Z,22.73
2022-11-14T22:35:56.061Z,20.37
2022-11-14T22:38:43.405Z,22.47
2022-11-14T22:41:32.961Z,22.17
2022-11-14T22:44:20.118Z,23.03
2022-11-14T22:47:07.736Z,23.07
2022-11-14T22:49:54.094Z,22.87
2022-11-14T22:52:40.408Z,21.93
2022-11-14T22:55:26.791Z,24.53
2022-11-14T22:58:13.125Z,22.13
2022-11-14T23:00:59.625Z,24.07
2022-11-14T23:03:48.345Z,24.37
2022-11-14T23:06:35.526Z,23.47
2022-11-14T23:09:22.171Z,24.43
2022-11-14T23:12:08.656Z,23.27
2022-11-14T23:14:55.312Z,25.40
2022-11-14T23:17:41.981Z,21.07
2022-11-14T23:20:29.798Z,21.83
2022-11-14T23:23:16.717Z,20.57
2022-11-14T23:26:05.081Z,22.07
2022-11-14T23:28:51.595Z,22.17
2022-11-14T23:31:37.951Z,21.33
2022-11-14T23:34:24.394Z,19.47
2022-11-14T23:37:12.044Z,20.70
2022-11-14T23:39:58.717Z,23.17
2022-11-14T23:42:45.270Z,21.53
2022-11-14T23:45:31.590Z,19.57
2022-11-14T23:48:19.027Z,20.90
2022-11-14T23:51:05.720Z,19.07
2022-11-14T23:53:53.546Z,18.70
2022-11-14T23:56:39.754Z,19.03
2022-11-14T23:59:26.398Z,20.57
